Terminal Aerodrome Forecast
Issued by NWS

Current Version | Previous Version | Graphics & Text | Print | Product List | Glossary On
Versions: 1 2 3 4 5 6 7 8 9 10 11 12 13 14 15 16 17 18 19 20 21 22 23 24 25 26 27 28 29 30 31 32 33 34 35 36 37 38 39 40 41 42
000
FTUS41 KRNK 251139
TAFLWB
TAF
KLWB 251139Z 2512/2612 21003KT P6SM BKN025
     FM251500 23004KT P6SM BKN035 OVC250
     FM252100 18003KT P6SM OVC050
     FM260400 09003KT 3SM -RA BR OVC015
     FM260700 VRB03KT 3/4SM -RASN BR OVC003=

USA.gov is the U.S. government's official web portal to all federal, state and local government web resources and services.